createdAt,value
2019-05-13T00:00:44.742Z,13.62
2019-05-13T00:03:14.500Z,13.57
2019-05-13T00:05:44.652Z,13.56
2019-05-13T00:08:14.307Z,13.48
2019-05-13T00:10:44.735Z,13.43
2019-05-13T00:13:14.882Z,13.41
2019-05-13T00:15:44.608Z,13.30
2019-05-13T00:18:14.527Z,13.31
2019-05-13T00:20:44.507Z,13.27
2019-05-13T00:23:14.528Z,13.25
2019-05-13T00:25:44.586Z,13.29
2019-05-13T00:28:14.687Z,13.27
2019-05-13T00:30:44.713Z,13.33
2019-05-13T00:33:14.369Z,13.29
2019-05-13T00:35:44.379Z,13.27
2019-05-13T00:38:14.318Z,13.29
2019-05-13T00:40:44.441Z,13.24
2019-05-13T00:43:14.463Z,13.25
2019-05-13T00:45:44.472Z,13.25
2019-05-13T00:48:14.421Z,13.29
2019-05-13T00:50:44.475Z,13.29
2019-05-13T00:53:14.107Z,13.27
2019-05-13T00:55:44.591Z,13.25
2019-05-13T00:58:14.378Z,13.20
2019-05-13T01:00:44.650Z,13.17
2019-05-13T01:03:14.371Z,13.18
2019-05-13T01:05:44.509Z,13.17
2019-05-13T01:08:14.755Z,13.08
2019-05-13T01:10:45.115Z,12.93
2019-05-13T01:13:14.766Z,12.84
2019-05-13T01:15:44.549Z,12.74
2019-05-13T01:18:14.489Z,12.66
2019-05-13T01:20:44.123Z,12.57
2019-05-13T01:23:14.253Z,12.49
2019-05-13T01:25:44.631Z,12.33
2019-05-13T01:28:14.283Z,12.30
2019-05-13T01:30:44.099Z,12.20
2019-05-13T01:33:14.526Z,12.12
2019-05-13T01:35:44.739Z,12.01
2019-05-13T01:38:14.316Z,11.96
2019-05-13T01:40:44.148Z,11.83
2019-05-13T01:43:14.554Z,11.84
2019-05-13T01:45:44.396Z,11.82
2019-05-13T01:48:14.360Z,11.79
2019-05-13T01:50:44.664Z,11.75
2019-05-13T01:53:14.641Z,11.70
2019-05-13T01:55:44.543Z,11.67
2019-05-13T01:58:14.683Z,11.64
2019-05-13T02:00:44.695Z,11.60
2019-05-13T02:03:14.780Z,11.53
2019-05-13T02:05:44.592Z,11.51
2019-05-13T02:08:14.561Z,11.49
2019-05-13T02:10:54.588Z,11.42
2019-05-13T02:13:25.008Z,11.39
2019-05-13T02:15:55.762Z,11.33
2019-05-13T02:18:25.334Z,11.27
2019-05-13T02:20:55.774Z,11.27
2019-05-13T02:23:25.596Z,11.16
2019-05-13T02:25:55.212Z,11.16
2019-05-13T02:28:25.282Z,11.14
2019-05-13T02:30:56.596Z,11.13
2019-05-13T02:33:26.142Z,11.15
2019-05-13T02:35:55.599Z,11.12
2019-05-13T02:38:30.150Z,11.09
2019-05-13T02:40:56.425Z,11.06
2019-05-13T02:43:25.913Z,11.08
2019-05-13T02:45:55.427Z,11.03
2019-05-13T02:48:24.934Z,10.99
2019-05-13T02:50:54.847Z,10.95
2019-05-13T02:53:24.770Z,10.91
2019-05-13T02:55:54.407Z,10.89
2019-05-13T02:58:25.078Z,10.84
2019-05-13T03:00:55.130Z,10.75
2019-05-13T03:03:24.661Z,10.76
2019-05-13T03:05:54.325Z,10.79
2019-05-13T03:08:39.224Z,10.80
2019-05-13T03:10:55.186Z,10.79
2019-05-13T03:13:24.649Z,10.82
2019-05-13T03:16:02.816Z,10.87
2019-05-13T03:18:33.447Z,10.92
2019-05-13T03:21:03.654Z,11.00
2019-05-13T03:23:33.301Z,11.04
2019-05-13T03:26:03.357Z,11.07
2019-05-13T03:28:33.815Z,11.21
2019-05-13T03:31:06.712Z,11.37
2019-05-13T03:33:37.412Z,11.54
2019-05-13T03:36:07.824Z,11.75
2019-05-13T03:38:58.044Z,11.82
2019-05-13T03:41:11.883Z,11.88
2019-05-13T03:43:42.924Z,12.07
2019-05-13T03:46:12.955Z,12.21
2019-05-13T03:48:43.077Z,12.33
2019-05-13T03:51:13.601Z,12.45
2019-05-13T03:53:43.530Z,12.64
2019-05-13T03:56:13.419Z,12.86
2019-05-13T03:58:43.595Z,13.07
2019-05-13T04:01:13.717Z,13.27
2019-05-13T04:03:44.221Z,13.44
2019-05-13T04:06:14.332Z,13.65
2019-05-13T04:08:44.207Z,13.93
2019-05-13T04:11:13.789Z,14.16
2019-05-13T04:13:43.552Z,14.72
2019-05-13T04:16:13.406Z,15.01
2019-05-13T04:18:43.455Z,15.15
2019-05-13T04:21:13.499Z,15.63
2019-05-13T04:23:43.458Z,17.52
2019-05-13T04:26:14.941Z,20.03
2019-05-13T04:28:44.306Z,22.12
2019-05-13T04:31:14.560Z,23.31
2019-05-13T04:33:44.346Z,23.85
2019-05-13T04:36:14.056Z,24.64
2019-05-13T04:38:44.684Z,25.65
2019-05-13T04:41:14.636Z,26.48
2019-05-13T04:43:44.465Z,27.41
2019-05-13T04:46:14.706Z,28.18
2019-05-13T04:48:44.819Z,27.73
2019-05-13T04:51:14.674Z,27.74
2019-05-13T04:53:44.160Z,27.93
2019-05-13T04:56:14.360Z,27.80
2019-05-13T04:58:44.253Z,28.08
2019-05-13T05:01:52.197Z,28.59
2019-05-13T05:04:30.483Z,28.99
2019-05-13T05:07:07.029Z,28.78
2019-05-13T05:10:26.387Z,28.38
2019-05-13T05:13:21.915Z,27.85
2019-05-13T05:16:08.950Z,27.54
2019-05-13T05:19:08.482Z,27.52
2019-05-13T05:21:55.085Z,26.73
2019-05-13T05:25:11.665Z,25.30
2019-05-13T05:28:31.932Z,24.35
2019-05-13T05:31:47.880Z,23.77
2019-05-13T05:34:38.182Z,23.40
2019-05-13T05:37:52.246Z,25.92
2019-05-13T05:40:31.269Z,27.57
2019-05-13T05:42:53.059Z,27.85
2019-05-13T05:45:22.700Z,28.39
2019-05-13T05:47:53.027Z,29.06
2019-05-13T05:50:23.082Z,29.51
2019-05-13T05:52:52.918Z,30.33
2019-05-13T05:55:22.458Z,30.41
2019-05-13T05:57:52.280Z,28.85
2019-05-13T06:00:22.096Z,27.72
2019-05-13T06:02:53.266Z,28.54
2019-05-13T06:05:22.855Z,28.86
2019-05-13T06:07:52.285Z,28.42
2019-05-13T06:10:22.582Z,28.34
2019-05-13T06:12:52.408Z,27.91
2019-05-13T06:15:22.605Z,26.80
2019-05-13T06:17:52.103Z,26.17
2019-05-13T06:20:21.617Z,26.00
2019-05-13T06:22:51.648Z,25.58
2019-05-13T06:25:23.422Z,24.89
2019-05-13T06:27:52.703Z,24.74
2019-05-13T06:30:22.295Z,24.42
2019-05-13T06:32:52.513Z,24.35
2019-05-13T06:35:22.302Z,24.65
2019-05-13T06:37:52.120Z,24.76
2019-05-13T06:40:21.939Z,24.71
2019-05-13T06:42:52.164Z,24.23
2019-05-13T06:45:21.952Z,24.19
2019-05-13T06:47:52.257Z,24.06
2019-05-13T06:50:22.056Z,24.09
2019-05-13T06:52:51.651Z,23.95
2019-05-13T06:55:21.470Z,23.81
2019-05-13T06:57:51.767Z,23.70
2019-05-13T07:00:21.749Z,23.83
2019-05-13T07:02:51.893Z,24.19
2019-05-13T07:05:22.721Z,24.11
2019-05-13T07:07:52.853Z,24.06
2019-05-13T07:10:22.362Z,24.45
2019-05-13T07:12:52.104Z,25.07
2019-05-13T07:15:22.373Z,25.52
2019-05-13T07:17:52.230Z,25.86
2019-05-13T07:20:22.730Z,26.27
2019-05-13T07:22:53.351Z,26.30
2019-05-13T07:25:23.088Z,26.42
2019-05-13T07:27:52.578Z,26.37
2019-05-13T07:30:38.137Z,25.77
2019-05-13T07:33:07.677Z,25.26
2019-05-13T07:35:38.292Z,25.12
2019-05-13T07:38:08.120Z,25.26
2019-05-13T07:40:37.700Z,25.49
2019-05-13T07:43:07.238Z,25.58
2019-05-13T07:45:36.805Z,25.36
2019-05-13T07:48:19.468Z,24.98
2019-05-13T07:50:51.620Z,25.08
2019-05-13T07:53:12.600Z,25.44
2019-05-13T07:55:42.150Z,25.76
2019-05-13T07:58:11.835Z,25.51
2019-05-13T08:00:42.064Z,25.72
2019-05-13T08:03:12.421Z,25.58
2019-05-13T08:05:42.519Z,25.24
2019-05-13T08:08:12.138Z,25.03
2019-05-13T08:10:42.064Z,24.63
2019-05-13T08:13:12.104Z,24.26
2019-05-13T08:15:42.373Z,24.27
2019-05-13T08:18:12.463Z,24.74
2019-05-13T08:20:42.396Z,25.08
2019-05-13T08:23:12.305Z,25.47
2019-05-13T08:25:42.544Z,25.63
2019-05-13T08:28:12.590Z,25.90
2019-05-13T08:30:42.912Z,25.60
2019-05-13T08:33:12.932Z,25.72
2019-05-13T08:35:47.235Z,25.72
2019-05-13T08:38:14.019Z,25.77
2019-05-13T08:40:43.429Z,25.84
2019-05-13T08:43:13.426Z,25.93
2019-05-13T08:45:43.197Z,25.75
2019-05-13T08:48:13.135Z,25.68
2019-05-13T08:50:43.099Z,25.62
2019-05-13T08:53:12.724Z,25.82
2019-05-13T08:55:43.007Z,26.15
2019-05-13T08:58:12.873Z,26.42
2019-05-13T09:00:53.450Z,26.13
2019-05-13T09:03:23.189Z,26.19
2019-05-13T09:05:53.294Z,26.60
2019-05-13T09:08:23.034Z,26.77
2019-05-13T09:10:56.467Z,26.67
2019-05-13T09:13:23.862Z,26.86
2019-05-13T09:15:53.304Z,26.83
2019-05-13T09:18:23.080Z,26.80
2019-05-13T09:20:52.649Z,26.60
2019-05-13T09:23:22.471Z,26.52
2019-05-13T09:25:52.448Z,26.52
2019-05-13T09:28:22.309Z,26.25
2019-05-13T09:30:53.226Z,26.06
2019-05-13T09:33:22.867Z,26.20
2019-05-13T09:35:53.592Z,26.26
2019-05-13T09:38:23.223Z,26.05
2019-05-13T09:40:53.386Z,25.56
2019-05-13T09:43:22.877Z,25.54
2019-05-13T09:45:52.713Z,25.87
2019-05-13T09:48:22.906Z,26.12
2019-05-13T09:50:52.524Z,25.97
2019-05-13T09:53:22.585Z,26.05
2019-05-13T09:55:52.550Z,26.12
2019-05-13T09:58:22.655Z,26.46
2019-05-13T10:00:53.273Z,26.05
2019-05-13T10:03:28.804Z,26.24
2019-05-13T10:05:54.364Z,26.07
2019-05-13T10:08:23.840Z,26.37
2019-05-13T10:10:53.319Z,26.54
2019-05-13T10:13:23.411Z,26.76
2019-05-13T10:15:53.003Z,27.60
2019-05-13T10:18:22.507Z,28.04
2019-05-13T10:20:58.230Z,28.02
2019-05-13T10:23:25.943Z,27.75
2019-05-13T10:25:57.537Z,27.57
2019-05-13T10:28:27.113Z,26.90
2019-05-13T10:30:56.697Z,26.76
2019-05-13T10:33:26.707Z,26.75
2019-05-13T10:35:56.245Z,27.01
2019-05-13T10:38:27.872Z,27.30
2019-05-13T10:40:56.862Z,27.60
2019-05-13T10:43:31.443Z,27.79
2019-05-13T10:45:57.591Z,28.23
2019-05-13T10:48:27.073Z,28.07
2019-05-13T10:50:57.405Z,28.19
2019-05-13T10:53:27.061Z,28.99
2019-05-13T10:55:56.804Z,29.19
2019-05-13T10:58:26.221Z,28.86
2019-05-13T11:00:55.665Z,28.20
2019-05-13T11:03:25.253Z,27.98
2019-05-13T11:05:54.693Z,28.00
2019-05-13T11:08:24.124Z,28.15
2019-05-13T11:10:53.614Z,27.66
2019-05-13T11:13:23.526Z,27.58
2019-05-13T11:15:57.738Z,27.61
2019-05-13T11:18:24.514Z,27.75
2019-05-13T11:20:54.140Z,28.05
2019-05-13T11:23:23.669Z,28.46
2019-05-13T11:25:53.132Z,28.12
2019-05-13T11:28:22.613Z,27.42
2019-05-13T11:30:52.306Z,27.96
2019-05-13T11:33:22.472Z,28.51
2019-05-13T11:35:52.550Z,28.70
2019-05-13T11:38:22.459Z,28.79
2019-05-13T11:40:52.632Z,29.05
2019-05-13T11:43:27.907Z,29.44
2019-05-13T11:45:53.506Z,29.18
2019-05-13T11:48:23.785Z,29.05
2019-05-13T11:50:54.221Z,28.70
2019-05-13T11:53:33.204Z,28.42
2019-05-13T11:55:55.204Z,28.37
2019-05-13T11:58:24.722Z,28.56
2019-05-13T12:00:57.084Z,28.18
2019-05-13T12:03:26.576Z,28.29
2019-05-13T12:05:56.236Z,27.32
2019-05-13T12:08:25.681Z,27.00
2019-05-13T12:10:55.217Z,26.53
2019-05-13T12:13:24.729Z,26.42
2019-05-13T12:15:54.835Z,26.49
2019-05-13T12:18:24.304Z,26.60
2019-05-13T12:20:54.344Z,27.07
2019-05-13T12:23:24.012Z,28.25
2019-05-13T12:25:53.484Z,28.92
2019-05-13T12:28:23.127Z,29.80
2019-05-13T12:30:53.300Z,29.99
2019-05-13T12:33:23.028Z,29.94
2019-05-13T12:35:53.353Z,30.02
2019-05-13T12:38:23.422Z,29.84
2019-05-13T12:40:53.279Z,29.21
2019-05-13T12:43:23.867Z,28.96
2019-05-13T12:45:53.890Z,28.18
2019-05-13T12:48:23.425Z,27.59
2019-05-13T12:50:54.149Z,27.09
2019-05-13T12:53:23.811Z,26.57
2019-05-13T12:55:56.681Z,26.11
2019-05-13T12:58:24.531Z,25.98
2019-05-13T13:00:54.100Z,25.67
2019-05-13T13:03:24.225Z,25.88
2019-05-13T13:05:53.865Z,26.12
2019-05-13T13:10:54.614Z,26.12
2019-05-13T13:13:52.474Z,26.11
2019-05-13T13:15:55.496Z,25.90
2019-05-13T13:18:25.175Z,25.92
2019-05-13T13:21:00.875Z,25.78
2019-05-13T13:23:26.028Z,25.71
2019-05-13T13:25:57.263Z,25.69
2019-05-13T13:28:27.083Z,25.66
2019-05-13T13:30:56.503Z,25.64
2019-05-13T13:33:25.955Z,25.50
2019-05-13T13:35:59.975Z,25.46
2019-05-13T13:38:26.777Z,25.65
2019-05-13T13:40:56.252Z,25.71
2019-05-13T13:43:25.759Z,25.46
2019-05-13T13:46:25.151Z,25.32
2019-05-13T13:48:26.501Z,25.17
2019-05-13T13:53:27.561Z,24.92
2019-05-13T13:55:57.054Z,24.74
2019-05-13T13:58:26.662Z,24.73
2019-05-13T14:01:07.121Z,24.69
2019-05-13T14:03:27.381Z,24.67
2019-05-13T14:05:56.936Z,24.64
2019-05-13T14:06:44.448Z,25.99
2019-05-13T14:07:09.285Z,25.06
2019-05-13T14:08:26.618Z,24.84
2019-05-13T14:10:56.112Z,24.89
2019-05-13T14:13:25.641Z,24.84
2019-05-13T14:15:55.158Z,24.94
2019-05-13T14:18:26.969Z,24.76
2019-05-13T14:20:55.810Z,24.65
2019-05-13T14:23:25.240Z,24.52
2019-05-13T14:25:54.906Z,24.39
2019-05-13T14:28:24.398Z,24.38
2019-05-13T14:30:53.941Z,24.43
2019-05-13T14:33:23.381Z,24.26
2019-05-13T14:35:53.225Z,23.88
2019-05-13T14:38:22.768Z,23.98
2019-05-13T14:40:52.704Z,24.10
2019-05-13T14:43:22.906Z,23.89
2019-05-13T14:45:52.649Z,23.88
2019-05-13T14:48:22.421Z,23.85
2019-05-13T14:50:52.434Z,23.85
2019-05-13T14:53:22.022Z,23.84
2019-05-13T14:55:51.931Z,23.90
2019-05-13T14:58:22.001Z,24.08
2019-05-13T15:01:10.842Z,23.96
2019-05-13T15:03:22.977Z,23.82
2019-05-13T15:05:52.454Z,23.86
2019-05-13T15:08:25.664Z,23.85
2019-05-13T15:10:53.636Z,23.82
2019-05-13T15:13:23.204Z,23.60
2019-05-13T15:15:52.716Z,23.43
2019-05-13T15:18:22.393Z,23.26
2019-05-13T15:20:52.999Z,23.02
2019-05-13T15:23:22.638Z,22.77
2019-05-13T15:25:52.284Z,22.50
2019-05-13T15:28:22.226Z,22.35
2019-05-13T15:30:51.788Z,22.24
2019-05-13T15:33:21.600Z,22.24
2019-05-13T15:35:52.011Z,22.22
2019-05-13T15:38:21.680Z,22.14
2019-05-13T15:40:52.191Z,22.17
2019-05-13T15:43:22.441Z,22.14
2019-05-13T15:45:52.076Z,22.16
2019-05-13T15:48:22.331Z,22.15
2019-05-13T15:50:52.105Z,22.01
2019-05-13T15:53:21.651Z,21.90
2019-05-13T15:55:51.754Z,21.85
2019-05-13T15:58:37.735Z,21.86
2019-05-13T16:00:52.652Z,21.82
2019-05-13T16:05:51.682Z,21.83
2019-05-13T16:08:21.237Z,21.75
2019-05-13T16:10:53.210Z,21.68
2019-05-13T16:13:22.252Z,21.58
2019-05-13T16:15:51.709Z,21.43
2019-05-13T16:18:22.213Z,21.39
2019-05-13T16:20:52.023Z,21.32
2019-05-13T16:23:21.586Z,21.33
2019-05-13T16:25:52.187Z,21.16
2019-05-13T16:28:21.784Z,21.13
2019-05-13T16:30:51.763Z,21.09
2019-05-13T16:33:21.407Z,21.02
2019-05-13T16:35:51.712Z,20.88
2019-05-13T16:38:21.936Z,20.85
2019-05-13T16:40:51.666Z,20.68
2019-05-13T16:43:21.461Z,20.61
2019-05-13T16:45:52.247Z,20.46
2019-05-13T16:48:21.892Z,20.40
2019-05-13T16:50:51.408Z,20.37
2019-05-13T16:53:25.617Z,20.28
2019-05-13T16:55:52.248Z,20.19
2019-05-13T16:58:24.794Z,20.16
2019-05-13T17:00:55.821Z,20.10
2019-05-13T17:03:24.249Z,19.96
2019-05-13T17:05:53.870Z,19.83
2019-05-13T17:08:23.381Z,19.75
2019-05-13T17:10:52.920Z,19.73
2019-05-13T17:13:22.488Z,19.69
2019-05-13T17:15:52.328Z,19.59
2019-05-13T17:18:22.099Z,19.53
2019-05-13T17:20:52.146Z,19.47
2019-05-13T17:23:21.947Z,19.46
2019-05-13T17:25:52.058Z,19.37
2019-05-13T17:28:22.033Z,19.30
2019-05-13T17:30:52.076Z,19.27
2019-05-13T17:33:23.050Z,19.20
2019-05-13T17:35:52.597Z,19.19
2019-05-13T17:38:22.026Z,19.15
2019-05-13T17:40:53.032Z,19.13
2019-05-13T17:43:22.693Z,19.04
2019-05-13T17:45:52.434Z,19.03
2019-05-13T17:48:26.745Z,19.00
2019-05-13T17:50:52.994Z,18.98
2019-05-13T17:53:22.422Z,18.90
2019-05-13T17:55:51.847Z,18.87
2019-05-13T17:58:22.155Z,18.88
2019-05-13T18:00:52.150Z,18.82
2019-05-13T18:03:21.753Z,18.79
2019-05-13T18:05:51.604Z,18.72
2019-05-13T18:08:21.092Z,18.58
2019-05-13T18:10:51.377Z,18.53
2019-05-13T18:13:21.628Z,18.54
2019-05-13T18:15:51.280Z,18.54
2019-05-13T18:18:21.561Z,18.42
2019-05-13T18:20:52.059Z,18.41
2019-05-13T18:23:21.589Z,18.37
2019-05-13T18:25:51.568Z,18.35
2019-05-13T18:28:30.227Z,18.32
2019-05-13T18:30:52.456Z,18.36
2019-05-13T18:33:22.026Z,18.23
2019-05-13T18:35:52.562Z,18.19
2019-05-13T18:38:22.152Z,18.16
2019-05-13T18:40:52.616Z,18.12
2019-05-13T18:43:22.182Z,18.10
2019-05-13T18:45:52.552Z,18.03
2019-05-13T18:48:24.878Z,18.00
2019-05-13T18:50:54.432Z,17.97
2019-05-13T18:53:23.836Z,17.88
2019-05-13T18:55:53.398Z,17.89
2019-05-13T18:58:22.948Z,17.83
2019-05-13T19:00:52.611Z,17.81
2019-05-13T19:03:24.942Z,17.79
2019-05-13T19:05:54.500Z,17.74
2019-05-13T19:08:23.960Z,17.74
2019-05-13T19:10:53.489Z,17.62
2019-05-13T19:13:23.043Z,17.52
2019-05-13T19:15:52.475Z,17.42
2019-05-13T19:18:22.053Z,17.46
2019-05-13T19:20:51.749Z,17.45
2019-05-13T19:23:21.184Z,17.44
2019-05-13T19:25:51.366Z,17.48
2019-05-13T19:28:22.251Z,17.44
2019-05-13T19:30:51.906Z,17.46
2019-05-13T19:33:22.147Z,17.40
2019-05-13T19:35:51.948Z,17.43
2019-05-13T19:38:21.577Z,17.40
2019-05-13T19:40:50.995Z,17.35
2019-05-13T19:43:21.853Z,17.29
2019-05-13T19:45:51.905Z,17.21
2019-05-13T19:48:21.839Z,17.21
2019-05-13T19:50:52.169Z,17.18
2019-05-13T19:53:21.735Z,17.12
2019-05-13T19:55:51.989Z,17.06
2019-05-13T19:58:21.696Z,17.02
2019-05-13T20:00:51.679Z,17.01
2019-05-13T20:03:22.551Z,16.96
2019-05-13T20:05:52.223Z,17.03
2019-05-13T20:08:21.742Z,17.01
2019-05-13T20:10:51.560Z,17.02
2019-05-13T20:13:21.756Z,17.03
2019-05-13T20:15:51.854Z,17.01
2019-05-13T20:18:22.939Z,17.04
2019-05-13T20:20:52.618Z,17.04
2019-05-13T20:23:22.069Z,16.97
2019-05-13T20:25:54.531Z,16.95
2019-05-13T20:28:24.000Z,16.94
2019-05-13T20:30:53.432Z,16.95
2019-05-13T20:33:22.889Z,16.94
2019-05-13T20:35:52.316Z,16.95
2019-05-13T20:38:22.231Z,16.93
2019-05-13T20:40:51.987Z,16.92
2019-05-13T20:43:22.492Z,16.92
2019-05-13T20:45:52.181Z,16.91
2019-05-13T20:48:21.599Z,16.94
2019-05-13T20:50:51.894Z,16.95
2019-05-13T20:53:21.819Z,16.92
2019-05-13T20:55:52.087Z,16.89
2019-05-13T20:58:21.574Z,16.86
2019-05-13T21:00:51.542Z,16.91
2019-05-13T21:03:22.158Z,16.89
2019-05-13T21:05:52.151Z,16.88
2019-05-13T21:08:21.863Z,16.86
2019-05-13T21:10:51.763Z,16.84
2019-05-13T21:13:21.313Z,16.82
2019-05-13T21:15:51.930Z,16.81
2019-05-13T21:18:22.225Z,16.77
2019-05-13T21:20:51.831Z,16.75
2019-05-13T21:23:21.778Z,16.76
2019-05-13T21:25:51.259Z,16.72
2019-05-13T21:28:22.084Z,16.67
2019-05-13T21:30:51.757Z,16.53
2019-05-13T21:33:22.093Z,16.35
2019-05-13T21:35:51.886Z,16.14
2019-05-13T21:38:22.252Z,15.89
2019-05-13T21:40:52.337Z,15.72
2019-05-13T21:43:21.820Z,15.55
2019-05-13T21:45:52.259Z,15.43
2019-05-13T21:48:21.957Z,15.35
2019-05-13T21:50:51.749Z,15.31
2019-05-13T21:53:24.081Z,15.12
2019-05-13T21:55:52.006Z,14.99
2019-05-13T21:58:22.314Z,14.85
2019-05-13T22:00:52.254Z,14.69
2019-05-13T22:03:21.681Z,14.58
2019-05-13T22:05:51.665Z,14.44
2019-05-13T22:08:21.770Z,14.35
2019-05-13T22:10:52.479Z,14.26
2019-05-13T22:13:22.066Z,14.23
2019-05-13T22:15:52.366Z,14.22
2019-05-13T22:18:22.005Z,14.11
2019-05-13T22:20:53.694Z,14.06
2019-05-13T22:23:22.563Z,14.02
2019-05-13T22:25:52.068Z,13.96
2019-05-13T22:28:22.062Z,13.94
2019-05-13T22:30:51.899Z,13.93
2019-05-13T22:33:21.718Z,13.92
2019-05-13T22:35:52.292Z,13.95
2019-05-13T22:38:21.979Z,13.93
2019-05-13T22:40:52.055Z,13.98
2019-05-13T22:43:21.636Z,13.95
2019-05-13T22:45:51.206Z,13.94
2019-05-13T22:48:22.293Z,13.98
2019-05-13T22:50:52.232Z,13.98
2019-05-13T22:53:21.743Z,14.02
2019-05-13T22:55:52.086Z,14.00
2019-05-13T22:58:22.554Z,13.94
2019-05-13T23:00:52.057Z,13.92
2019-05-13T23:03:21.548Z,13.90
2019-05-13T23:05:52.169Z,13.90
2019-05-13T23:08:21.841Z,13.92
2019-05-13T23:10:51.596Z,13.91
2019-05-13T23:13:21.116Z,13.79
2019-05-13T23:15:51.598Z,13.82
2019-05-13T23:18:22.163Z,13.88
2019-05-13T23:20:51.790Z,13.85
2019-05-13T23:23:22.150Z,13.81
2019-05-13T23:25:51.714Z,13.80
2019-05-13T23:28:21.651Z,13.79
2019-05-13T23:30:51.383Z,13.77
2019-05-13T23:33:21.965Z,13.74
2019-05-13T23:35:51.602Z,13.74
2019-05-13T23:38:21.494Z,13.74
2019-05-13T23:40:51.572Z,13.76
2019-05-13T23:43:21.763Z,13.77
2019-05-13T23:45:51.435Z,13.78
2019-05-13T23:48:21.632Z,13.78
2019-05-13T23:50:52.141Z,13.71
2019-05-13T23:53:22.091Z,13.74
2019-05-13T23:55:52.134Z,13.71
2019-05-13T23:58:21.875Z,13.65
